Time,TemperatureF,DewpointF,PressureIn,WindDirection,WindDirectionDegrees,WindSpeedMPH,WindSpeedGustMPH,Humidity,HourlyPrecipIn,Conditions,Clouds,dailyrainin,SoftwareType,DateUTC
2013-05-23 00:01:00,69.4,63.7,29.71,WSW,248,3.8,4.6,82,0.00,RA,,0.00,WeatherDisplay:10.37,2013-05-23 04:01:00,
2013-05-23 00:02:00,69.4,63.7,29.71,East,90,3.9,5.8,82,0.00,RA,,0.00,WeatherDisplay:10.37,2013-05-23 04:02:00,
2013-05-23 00:04:00,69.3,63.6,29.71,SSW,202,3.5,4.6,82,0.00,RA,,0.00,WeatherDisplay:10.37,2013-05-23 04:04:00,
2013-05-23 00:09:00,69.1,63.7,29.71,NW,315,2.6,4.6,83,0.00,RA,,0.00,WeatherDisplay:10.37,2013-05-23 04:09:00,
2013-05-23 00:14:00,69.1,63.7,29.71,WSW,248,3.5,4.7,83,0.00,OVC,,0.00,WeatherDisplay:10.37,2013-05-23 04:14:00,
2013-05-23 00:19:00,68.9,63.5,29.71,South,180,3.7,5.8,83,0.00,OVC,,0.00,WeatherDisplay:10.37,2013-05-23 04:19:00,
2013-05-23 00:24:00,68.9,63.5,29.71,NW,315,2.3,3.5,83,0.00,OVC,,0.00,WeatherDisplay:10.37,2013-05-23 04:24:00,
2013-05-23 00:29:00,68.7,63.3,29.71,SW,225,2.7,3.5,83,0.00,OVC,,0.00,WeatherDisplay:10.37,2013-05-23 04:29:00,
2013-05-23 00:34:00,68.5,63.1,29.71,WSW,248,4.8,5.8,83,0.00,OVC,,0.00,WeatherDisplay:10.37,2013-05-23 04:34:00,
2013-05-23 00:39:00,68.4,63.0,29.71,West,270,2.1,5.8,83,0.00,OVC,,0.00,WeatherDisplay:10.37,2013-05-23 04:39:00,
2013-05-23 00:44:00,68.2,63.2,29.71,West,270,3.0,3.5,84,0.00,OVC,,0.00,WeatherDisplay:10.37,2013-05-23 04:44:00,
2013-05-23 00:49:00,68.2,63.2,29.71,SW,225,3.0,3.5,84,0.00,OVC,,0.00,WeatherDisplay:10.37,2013-05-23 04:49:00,
2013-05-23 00:54:00,68.2,63.2,29.71,ESE,112,3.0,3.5,84,0.00,OVC,,0.00,WeatherDisplay:10.37,2013-05-23 04:54:00,
2013-05-23 00:59:00,68.2,63.2,29.71,West,270,2.3,3.5,84,0.00,OVC,,0.00,WeatherDisplay:10.37,2013-05-23 04:59:00,
2013-05-23 01:04:00,68.2,63.2,29.71,West,270,2.8,3.7,84,0.00,OVC,,0.00,WeatherDisplay:10.37,2013-05-23 05:04:00,
2013-05-23 01:09:00,68.9,63.2,29.71,West,270,4.6,6.9,82,0.00,OVC,,0.00,WeatherDisplay:10.37,2013-05-23 05:09:00,
2013-05-23 01:14:00,69.4,63.0,29.71,South,180,4.1,4.6,80,0.00,OVC,,0.00,WeatherDisplay:10.37,2013-05-23 05:14:00,
2013-05-23 01:19:00,69.4,63.0,29.71,WNW,292,2.2,4.6,80,0.00,OVC,,0.00,WeatherDisplay:10.37,2013-05-23 05:19:00,
2013-05-23 01:24:00,69.3,63.2,29.71,North,360,0.7,1.1,81,0.00,OVC,,0.00,WeatherDisplay:10.37,2013-05-23 05:24:00,
2013-05-23 01:29:00,69.3,63.2,29.71,SSE,158,1.7,2.3,81,0.00,OVC,,0.00,WeatherDisplay:10.37,2013-05-23 05:29:00,
2013-05-23 01:34:00,69.1,63.7,29.71,South,180,3.2,4.6,83,0.00,OVC,,0.00,WeatherDisplay:10.37,2013-05-23 05:34:00,
2013-05-23 01:39:00,69.1,64.1,29.71,South,180,1.7,2.3,84,0.00,OVC,,0.00,WeatherDisplay:10.37,2013-05-23 05:39:00,
2013-05-23 01:44:00,68.9,63.9,29.70,SSW,202,2.5,4.6,84,0.00,OVC,,0.00,WeatherDisplay:10.37,2013-05-23 05:44:00,
2013-05-23 01:49:00,68.9,64.2,29.70,SW,225,2.3,2.3,85,0.00,OVC,,0.00,WeatherDisplay:10.37,2013-05-23 05:49:00,
2013-05-23 01:54:00,69.1,64.4,29.71,West,270,4.8,5.8,85,0.00,OVC,,0.00,WeatherDisplay:10.37,2013-05-23 05:54:00,
2013-05-23 01:59:00,69.4,64.7,29.71,West,270,5.1,5.8,85,0.00,OVC,,0.00,WeatherDisplay:10.37,2013-05-23 05:59:00,
2013-05-23 02:04:00,68.5,64.5,29.71,West,270,6.9,6.9,87,0.00,OVC,,0.00,WeatherDisplay:10.37,2013-05-23 06:04:00,
2013-05-23 02:09:00,68.0,64.6,29.72,West,270,5.3,5.8,89,0.02,RA,,0.02,WeatherDisplay:10.37,2013-05-23 06:09:00,
2013-05-23 02:14:00,66.4,64.9,29.72,WSW,248,5.8,6.9,95,0.02, +RA,,0.10,WeatherDisplay:10.37,2013-05-23 06:14:00,
2013-05-23 02:19:00,66.0,64.5,29.72,SW,225,5.8,6.9,95,0.10, +RA,,0.10,WeatherDisplay:10.37,2013-05-23 06:19:00,
2013-05-23 02:24:00,65.7,64.2,29.72,WSW,248,5.9,8.1,95,0.15, +RA,,0.15,WeatherDisplay:10.37,2013-05-23 06:24:00,
2013-05-23 02:29:00,65.5,64.0,29.71,South,180,3.5,5.8,95,0.18, +RA,,0.18,WeatherDisplay:10.37,2013-05-23 06:29:00,
2013-05-23 02:34:00,65.5,64.0,29.71,SW,225,1.9,2.7,95,0.19, +RA,,0.19,WeatherDisplay:10.37,2013-05-23 06:34:00,
2013-05-23 02:39:00,65.3,63.8,29.71,WSW,248,2.1,2.7,95,0.19, +RA,,0.19,WeatherDisplay:10.37,2013-05-23 06:39:00,
2013-05-23 02:44:00,65.3,63.8,29.71,West,270,1.0,2.3,95,0.19, +RA,,0.19,WeatherDisplay:10.37,2013-05-23 06:44:00,
2013-05-23 02:49:00,65.1,63.6,29.71,SW,225,1.7,2.2,95,0.19, +RA,,0.19,WeatherDisplay:10.37,2013-05-23 06:49:00,
2013-05-23 02:54:00,65.1,63.6,29.70,NNE,22,3.2,4.6,95,0.19, +RA,,0.19,WeatherDisplay:10.37,2013-05-23 06:54:00,
2013-05-23 02:59:00,65.1,63.6,29.70,West,270,3.5,3.5,95,0.20, +RA,,0.20,WeatherDisplay:10.37,2013-05-23 06:59:00,
2013-05-23 03:04:00,65.1,63.6,29.70,SSW,202,2.6,3.5,95,0.20, +RA,,0.20,WeatherDisplay:10.37,2013-05-23 07:04:00,
2013-05-23 03:09:00,65.1,63.6,29.70,WSW,248,3.5,4.7,95,0.18, +RA,,0.20,WeatherDisplay:10.37,2013-05-23 07:09:00,
2013-05-23 03:14:00,65.1,63.6,29.70,SW,225,3.3,4.6,95,0.18,OVC,,0.20,WeatherDisplay:10.37,2013-05-23 07:14:00,
2013-05-23 03:19:00,64.9,63.4,29.70,SW,225,1.2,2.3,95,0.10,OVC,,0.20,WeatherDisplay:10.37,2013-05-23 07:19:00,
2013-05-23 03:24:00,64.9,63.4,29.70,West,270,1.6,2.3,95,0.05,OVC,,0.20,WeatherDisplay:10.37,2013-05-23 07:24:00,
2013-05-23 03:29:00,64.9,63.4,29.70,WSW,248,1.8,3.2,95,0.02,OVC,,0.20,WeatherDisplay:10.37,2013-05-23 07:29:00,
2013-05-23 03:34:00,64.8,63.3,29.70,WSW,248,1.9,2.3,95,0.01,OVC,,0.20,WeatherDisplay:10.37,2013-05-23 07:34:00,
2013-05-23 03:39:00,64.8,63.3,29.70,SSW,202,1.4,2.3,95,0.01,OVC,,0.20,WeatherDisplay:10.37,2013-05-23 07:39:00,
2013-05-23 03:44:00,64.8,63.3,29.70,SSW,202,2.2,2.3,95,0.01,OVC,,0.20,WeatherDisplay:10.37,2013-05-23 07:44:00,
2013-05-23 03:49:00,64.8,63.3,29.70,SSE,158,1.8,2.7,95,0.01,OVC,,0.20,WeatherDisplay:10.37,2013-05-23 07:49:00,
2013-05-23 03:55:00,64.8,63.3,29.70,SSE,160,2.0,3.0,95,0.00,OVC,OVC,0.20,WeatherDisplay:10.37,2013-05-23 07:55:00,
2013-05-23 04:00:00,64.6,63.1,29.70,SSE,158,1.1,2.2,95,0.00,OVC,,0.20,WeatherDisplay:10.37,2013-05-23 08:00:00,
2013-05-23 04:05:00,64.6,63.1,29.69,South,180,1.9,2.3,95,0.00,OVC,,0.20,WeatherDisplay:10.37,2013-05-23 08:05:00,
2013-05-23 04:10:00,64.6,63.1,29.69,SSW,202,0.0,0.0,95,0.00,OVC,,0.20,WeatherDisplay:10.37,2013-05-23 08:10:00,
2013-05-23 04:15:00,64.6,63.1,29.69,SW,225,0.0,0.0,95,0.00,-RA,,0.20,WeatherDisplay:10.37,2013-05-23 08:15:00,
2013-05-23 04:20:00,64.6,63.1,29.70,SSE,158,1.9,3.2,95,0.00,-RA,,0.20,WeatherDisplay:10.37,2013-05-23 08:20:00,
2013-05-23 04:25:00,64.6,63.1,29.70,SSE,158,3.0,4.7,95,0.01,-RA,,0.21,WeatherDisplay:10.37,2013-05-23 08:25:00,
2013-05-23 04:30:00,65.1,63.6,29.70,SE,135,1.7,4.6,95,0.01,-RA,,0.21,WeatherDisplay:10.37,2013-05-23 08:30:00,
2013-05-23 04:35:00,65.1,63.6,29.70,WSW,248,3.2,3.7,95,0.01,-RA,,0.21,WeatherDisplay:10.37,2013-05-23 08:35:00,
2013-05-23 04:40:00,65.1,63.6,29.70,SSW,202,3.4,4.2,95,0.01,-RA,,0.21,WeatherDisplay:10.37,2013-05-23 08:40:00,
2013-05-23 04:45:00,65.3,63.8,29.69,South,180,4.7,5.8,95,0.01,-RA,,0.21,WeatherDisplay:10.37,2013-05-23 08:45:00,
2013-05-23 04:50:00,65.3,63.8,29.69,SE,135,2.3,2.3,95,0.01,-RA,,0.21,WeatherDisplay:10.37,2013-05-23 08:50:00,
2013-05-23 04:55:00,65.3,63.8,29.69,ESE,112,2.5,4.6,95,0.01,-RA,,0.21,WeatherDisplay:10.37,2013-05-23 08:55:00,
2013-05-23 05:00:00,65.3,63.8,29.69,SE,135,3.3,4.2,95,0.01,-RA,,0.21,WeatherDisplay:10.37,2013-05-23 09:00:00,
2013-05-23 05:05:00,65.5,64.0,29.69,West,270,2.0,2.7,95,0.01,-RA,,0.21,WeatherDisplay:10.37,2013-05-23 09:05:00,
2013-05-23 05:10:00,65.5,64.0,29.69,SE,135,4.5,8.1,95,0.01,-RA,,0.21,WeatherDisplay:10.37,2013-05-23 09:10:00,
2013-05-23 05:15:00,65.5,64.0,29.69,WNW,292,4.7,6.3,95,0.01,OVC,,0.21,WeatherDisplay:10.37,2013-05-23 09:15:00,
2013-05-23 05:20:00,65.5,64.0,29.69,West,270,3.2,4.7,95,0.01,OVC,,0.21,WeatherDisplay:10.37,2013-05-23 09:20:00,
2013-05-23 05:25:00,65.7,64.2,29.69,SW,225,4.2,7.3,95,0.00,OVC,,0.21,WeatherDisplay:10.37,2013-05-23 09:25:00,
2013-05-23 05:30:00,66.0,64.5,29.69,SSW,202,6.5,8.3,95,0.00,OVC,,0.21,WeatherDisplay:10.37,2013-05-23 09:30:00,
2013-05-23 05:35:00,66.0,64.5,29.69,West,270,4.5,6.9,95,0.00,OVC,,0.21,WeatherDisplay:10.37,2013-05-23 09:35:00,
2013-05-23 05:40:00,66.2,64.7,29.69,South,180,3.4,4.6,95,0.00,OVC,,0.21,WeatherDisplay:10.37,2013-05-23 09:40:00,
2013-05-23 05:45:00,66.2,64.7,29.69,South,180,6.5,6.9,95,0.00,OVC,,0.21,WeatherDisplay:10.37,2013-05-23 09:45:00,
2013-05-23 05:50:00,66.0,64.5,29.69,NE,45,5.8,6.9,95,0.05,RA,,0.26,WeatherDisplay:10.37,2013-05-23 09:50:00,
2013-05-23 05:55:00,66.0,64.5,29.69,NE,45,5.8,5.8,95,0.05,RA,,0.26,WeatherDisplay:10.37,2013-05-23 09:55:00,
2013-05-23 06:00:00,65.7,64.2,29.69,SSW,202,4.8,5.8,95,0.06,RA,,0.27,WeatherDisplay:10.37,2013-05-23 10:00:00,
2013-05-23 06:05:00,65.7,64.2,29.69,West,270,3.9,5.3,95,0.06,RA,,0.27,WeatherDisplay:10.37,2013-05-23 10:05:00,
2013-05-23 06:10:00,65.7,64.2,29.69,West,270,3.6,4.6,95,0.06,OVC,,0.27,WeatherDisplay:10.37,2013-05-23 10:10:00,
2013-05-23 06:15:00,65.7,64.2,29.69,WSW,248,4.7,5.8,95,0.06,OVC,,0.27,WeatherDisplay:10.37,2013-05-23 10:15:00,
2013-05-23 06:20:00,65.7,64.2,29.70,WSW,248,4.5,9.4,95,0.06,OVC,,0.27,WeatherDisplay:10.37,2013-05-23 10:20:00,
2013-05-23 06:25:00,65.8,64.3,29.70,WSW,248,3.5,4.6,95,0.06,OVC,,0.27,WeatherDisplay:10.37,2013-05-23 10:25:00,
2013-05-23 06:30:00,65.8,64.3,29.70,WSW,248,3.8,4.6,95,0.06,OVC,,0.27,WeatherDisplay:10.37,2013-05-23 10:30:00,
2013-05-23 06:35:00,66.0,64.5,29.70,West,270,3.5,6.3,95,0.06,OVC,,0.27,WeatherDisplay:10.37,2013-05-23 10:35:00,
2013-05-23 06:40:00,66.0,64.5,29.70,WSW,248,3.1,4.6,95,0.06,OVC,,0.27,WeatherDisplay:10.37,2013-05-23 10:40:00,
2013-05-23 06:45:00,66.0,64.5,29.70,SW,225,5.4,5.8,95,0.06,OVC,,0.27,WeatherDisplay:10.37,2013-05-23 10:45:00,
2013-05-23 06:50:00,65.7,64.2,29.70,WSW,248,6.4,6.9,95,0.01,OVC,,0.27,WeatherDisplay:10.37,2013-05-23 10:50:00,
2013-05-23 06:55:00,65.1,63.6,29.72,West,270,6.6,7.3,95,0.01,OVC,,0.27,WeatherDisplay:10.37,2013-05-23 10:55:00,
2013-05-23 07:00:00,64.8,63.3,29.72,West,270,3.8,5.8,95,0.01,RA,,0.28,WeatherDisplay:10.37,2013-05-23 11:00:00,
2013-05-23 07:05:00,64.6,63.1,29.72,SW,225,6.3,8.3,95,0.01,RA,,0.28,WeatherDisplay:10.37,2013-05-23 11:05:00,
2013-05-23 07:10:00,64.4,62.9,29.72,SW,225,9.9,16.1,95,0.01,OVC,,0.28,WeatherDisplay:10.37,2013-05-23 11:10:00,
2013-05-23 07:15:00,64.2,62.7,29.72,North,360,7.7,11.5,95,0.01,OVC,,0.28,WeatherDisplay:10.37,2013-05-23 11:15:00,
2013-05-23 07:20:00,64.2,62.7,29.72,West,270,7.1,15.0,95,0.01,OVC,,0.28,WeatherDisplay:10.37,2013-05-23 11:20:00,
2013-05-23 07:25:00,64.2,62.7,29.72,SSW,202,6.9,9.4,95,0.01,OVC,,0.28,WeatherDisplay:10.37,2013-05-23 11:25:00,
2013-05-23 07:30:00,64.2,62.7,29.73,WSW,248,5.7,6.9,95,0.01,OVC,,0.28,WeatherDisplay:10.37,2013-05-23 11:30:00,
2013-05-23 07:35:00,63.9,62.4,29.73,SE,135,5.2,6.8,95,0.02,-RA,,0.29,WeatherDisplay:10.37,2013-05-23 11:35:00,
2013-05-23 07:40:00,63.9,62.4,29.73,SSW,202,5.6,9.2,95,0.02,-RA,,0.29,WeatherDisplay:10.37,2013-05-23 11:40:00,
2013-05-23 07:45:00,63.9,62.4,29.73,SW,225,5.1,7.8,95,0.02,-RA,,0.29,WeatherDisplay:10.37,2013-05-23 11:45:00,
2013-05-23 07:50:00,63.9,62.4,29.73,SW,225,7.3,7.3,95,0.02,-RA,,0.29,WeatherDisplay:10.37,2013-05-23 11:50:00,
2013-05-23 07:55:00,63.7,62.2,29.73,West,270,4.5,5.8,95,0.02,-RA,,0.29,WeatherDisplay:10.37,2013-05-23 11:55:00,
2013-05-23 08:00:00,63.5,62.0,29.73,West,270,4.8,5.8,95,0.01,-RA,,0.29,WeatherDisplay:10.37,2013-05-23 12:00:00,
2013-05-23 08:05:00,63.5,61.7,29.74,SW,225,4.4,5.8,94,0.01,-RA,,0.29,WeatherDisplay:10.37,2013-05-23 12:05:00,
2013-05-23 08:10:00,63.7,61.9,29.74,SW,225,4.9,5.8,94,0.01,-RA,,0.29,WeatherDisplay:10.37,2013-05-23 12:10:00,
2013-05-23 08:15:00,63.7,61.9,29.74,West,270,4.8,5.8,94,0.01,OVC,,0.29,WeatherDisplay:10.37,2013-05-23 12:15:00,
2013-05-23 08:20:00,63.7,61.9,29.74,SSW,202,6.5,6.9,94,0.01,OVC,,0.29,WeatherDisplay:10.37,2013-05-23 12:20:00,
2013-05-23 08:25:00,63.7,62.2,29.74,SW,225,4.9,5.8,95,0.01,BKN,,0.29,WeatherDisplay:10.37,2013-05-23 12:25:00,
2013-05-23 08:30:00,63.7,62.2,29.74,SW,225,6.5,8.1,95,0.01,BKN,,0.29,WeatherDisplay:10.37,2013-05-23 12:30:00,
2013-05-23 08:35:00,63.7,62.2,29.74,WSW,248,4.9,6.3,95,0.00,BKN,,0.29,WeatherDisplay:10.37,2013-05-23 12:35:00,
2013-05-23 08:40:00,63.7,62.2,29.74,South,180,4.9,8.1,95,0.00,BKN,,0.29,WeatherDisplay:10.37,2013-05-23 12:40:00,
2013-05-23 08:45:00,64.0,62.5,29.74,West,270,6.8,8.1,95,0.00,BKN,,0.29,WeatherDisplay:10.37,2013-05-23 12:45:00,
2013-05-23 08:50:00,64.2,62.7,29.74,SW,225,5.6,6.9,95,0.00,BKN,,0.29,WeatherDisplay:10.37,2013-05-23 12:50:00,
2013-05-23 08:55:00,64.6,63.1,29.75,WSW,248,4.3,5.3,95,0.00,BKN,,0.29,WeatherDisplay:10.37,2013-05-23 12:55:00,
2013-05-23 09:00:00,65.3,63.2,29.75,NW,315,4.2,6.9,93,0.00,BKN,,0.29,WeatherDisplay:10.37,2013-05-23 13:00:00,
2013-05-23 09:05:00,65.5,63.1,29.75,SSW,202,5.9,6.9,92,0.00,BKN,,0.29,WeatherDisplay:10.37,2013-05-23 13:05:00,
2013-05-23 09:10:00,65.7,62.7,29.75,WSW,248,7.5,8.8,90,0.00,BKN,,0.29,WeatherDisplay:10.37,2013-05-23 13:10:00,
2013-05-23 09:15:00,65.8,62.8,29.75,WSW,248,6.4,8.8,90,0.00,BKN,,0.29,WeatherDisplay:10.37,2013-05-23 13:15:00,
2013-05-23 09:20:00,65.8,62.8,29.75,WSW,248,6.1,8.1,90,0.00,BKN,,0.29,WeatherDisplay:10.37,2013-05-23 13:20:00,
2013-05-23 09:25:00,66.2,63.2,29.75,West,270,5.0,6.9,90,0.00,BKN,,0.29,WeatherDisplay:10.37,2013-05-23 13:25:00,
2013-05-23 09:30:00,66.2,62.9,29.75,WSW,248,8.7,13.8,89,0.00,BKN,,0.29,WeatherDisplay:10.37,2013-05-23 13:30:00,
2013-05-23 09:35:00,66.6,63.3,29.75,West,270,7.5,8.8,89,0.00,BKN,,0.29,WeatherDisplay:10.37,2013-05-23 13:35:00,
2013-05-23 09:40:00,66.4,63.1,29.75,SW,225,9.1,10.4,89,0.00,BKN,,0.29,WeatherDisplay:10.37,2013-05-23 13:40:00,
2013-05-23 09:45:00,66.2,63.2,29.75,West,270,6.6,8.1,90,0.00,BKN,,0.29,WeatherDisplay:10.37,2013-05-23 13:45:00,
2013-05-23 09:50:00,66.9,63.6,29.75,SSW,202,6.0,9.2,89,0.00,BKN,,0.29,WeatherDisplay:10.37,2013-05-23 13:50:00,
2013-05-23 09:55:00,67.1,63.4,29.75,SSE,158,8.7,9.9,88,0.00,BKN,,0.29,WeatherDisplay:10.37,2013-05-23 13:55:00,
2013-05-23 10:00:00,67.1,63.4,29.75,WSW,248,6.2,8.1,88,0.00,BKN,,0.29,WeatherDisplay:10.37,2013-05-23 14:00:00,
2013-05-23 10:05:00,68.2,63.9,29.74,WNW,292,6.4,9.2,86,0.00,BKN,,0.29,WeatherDisplay:10.37,2013-05-23 14:05:00,
2013-05-23 10:10:00,68.9,63.9,29.74,West,270,9.3,12.7,84,0.00,BKN,,0.29,WeatherDisplay:10.37,2013-05-23 14:10:00,
2013-05-23 10:15:00,69.4,64.0,29.74,SW,225,7.8,9.2,83,0.00,BKN,,0.29,WeatherDisplay:10.37,2013-05-23 14:15:00,
2013-05-23 10:20:00,69.8,63.7,29.75,West,270,9.1,12.7,81,0.00,BKN,,0.29,WeatherDisplay:10.37,2013-05-23 14:20:00,
2013-05-23 10:25:00,70.2,63.7,29.75,NNW,338,10.1,12.7,80,0.00,BKN,,0.29,WeatherDisplay:10.37,2013-05-23 14:25:00,
2013-05-23 10:30:00,69.4,63.3,29.75,NW,315,8.5,10.4,81,0.00,BKN,,0.29,WeatherDisplay:10.37,2013-05-23 14:30:00,
2013-05-23 10:35:00,69.4,62.6,29.75,NW,315,11.8,14.5,79,0.00,BKN,,0.29,WeatherDisplay:10.37,2013-05-23 14:35:00,
2013-05-23 10:40:00,69.3,62.5,29.75,WNW,292,6.9,10.4,79,0.00,BKN,,0.29,WeatherDisplay:10.37,2013-05-23 14:40:00,
2013-05-23 10:45:00,69.6,62.8,29.75,SSE,158,6.7,8.1,79,0.00,BKN,,0.29,WeatherDisplay:10.37,2013-05-23 14:45:00,
2013-05-23 10:50:00,70.2,63.0,29.75,North,360,5.6,7.8,78,0.00,BKN,,0.29,WeatherDisplay:10.37,2013-05-23 14:50:00,
2013-05-23 10:55:00,70.3,63.5,29.75,SSW,202,9.0,9.2,79,0.00,BKN,,0.29,WeatherDisplay:10.37,2013-05-23 14:55:00,
2013-05-23 11:00:00,69.8,63.3,29.75,WNW,292,7.6,9.2,80,0.00,BKN,,0.29,WeatherDisplay:10.37,2013-05-23 15:00:00,
2013-05-23 11:05:00,70.3,63.5,29.75,West,270,7.9,9.2,79,0.00,BKN,,0.29,WeatherDisplay:10.37,2013-05-23 15:05:00,
2013-05-23 11:10:00,70.2,63.7,29.75,WSW,248,8.1,10.4,80,0.00,BKN,,0.29,WeatherDisplay:10.37,2013-05-23 15:10:00,
2013-05-23 11:15:00,69.6,63.5,29.75,WSW,248,6.8,9.2,81,0.00,BKN,,0.29,WeatherDisplay:10.37,2013-05-23 15:15:00,
2013-05-23 11:20:00,69.6,63.5,29.75,West,270,9.1,10.4,81,0.00,BKN,,0.29,WeatherDisplay:10.37,2013-05-23 15:20:00,
2013-05-23 11:25:00,69.6,63.5,29.75,SW,225,9.7,10.4,81,0.00,BKN,,0.29,WeatherDisplay:10.37,2013-05-23 15:25:00,
2013-05-23 11:30:00,69.3,64.3,29.75,SW,225,8.9,11.5,84,0.00,BKN,,0.29,WeatherDisplay:10.37,2013-05-23 15:30:00,
2013-05-23 11:35:00,69.1,64.1,29.75,West,270,7.3,7.3,84,0.00,BKN,,0.29,WeatherDisplay:10.37,2013-05-23 15:35:00,
2013-05-23 11:40:00,69.4,64.4,29.75,West,270,8.6,13.0,84,0.00,BKN,,0.29,WeatherDisplay:10.37,2013-05-23 15:40:00,
2013-05-23 11:45:00,70.3,64.2,29.75,WSW,248,8.3,10.4,81,0.00,BKN,,0.29,WeatherDisplay:10.37,2013-05-23 15:45:00,
2013-05-23 11:50:00,70.7,64.2,29.75,West,270,11.2,12.7,80,0.00,BKN,,0.29,WeatherDisplay:10.37,2013-05-23 15:50:00,
2013-05-23 11:55:00,71.1,64.3,29.75,West,270,9.3,13.0,79,0.00,BKN,,0.29,WeatherDisplay:10.37,2013-05-23 15:55:00,
2013-05-23 12:00:00,70.7,63.9,29.75,WSW,248,8.8,9.2,79,0.00,BKN,,0.29,WeatherDisplay:10.37,2013-05-23 16:00:00,
2013-05-23 12:05:00,71.6,64.4,29.74,West,270,10.6,13.0,78,0.00,BKN,,0.29,WeatherDisplay:10.37,2013-05-23 16:05:00,
2013-05-23 12:10:00,70.9,63.7,29.74,SW,225,8.1,8.8,78,0.00,BKN,,0.29,WeatherDisplay:10.37,2013-05-23 16:10:00,
2013-05-23 12:15:00,70.7,63.9,29.74,SW,225,5.9,8.1,79,0.00,BKN,,0.29,WeatherDisplay:10.37,2013-05-23 16:15:00,
2013-05-23 12:20:00,70.7,63.5,29.75,South,180,9.2,10.4,78,0.00,BKN,,0.29,WeatherDisplay:10.37,2013-05-23 16:20:00,
2013-05-23 12:25:00,70.9,63.3,29.75,WSW,248,9.2,10.4,77,0.00,BKN,,0.29,WeatherDisplay:10.37,2013-05-23 16:25:00,
2013-05-23 12:30:00,70.9,63.0,29.75,SW,225,9.4,13.5,76,0.00,BKN,,0.29,WeatherDisplay:10.37,2013-05-23 16:30:00,
2013-05-23 12:35:00,71.1,63.1,29.75,WSW,248,12.8,18.4,76,0.00,BKN,,0.29,WeatherDisplay:10.37,2013-05-23 16:35:00,
2013-05-23 12:40:00,70.9,63.3,29.75,SW,225,7.9,12.7,77,0.00,BKN,,0.29,WeatherDisplay:10.37,2013-05-23 16:40:00,
2013-05-23 12:45:00,70.9,63.3,29.75,SW,225,6.3,6.3,77,0.00,BKN,,0.29,WeatherDisplay:10.37,2013-05-23 16:45:00,
2013-05-23 12:50:00,71.2,63.6,29.75,North,360,6.9,10.9,77,0.00,BKN,,0.29,WeatherDisplay:10.37,2013-05-23 16:50:00,
2013-05-23 12:55:00,69.6,62.4,29.74,West,270,8.5,10.4,78,0.00,BKN,,0.29,WeatherDisplay:10.37,2013-05-23 16:55:00,
2013-05-23 13:00:00,69.6,62.4,29.74,SW,225,8.2,9.2,78,0.00,BKN,,0.29,WeatherDisplay:10.37,2013-05-23 17:00:00,
2013-05-23 13:05:00,70.7,62.8,29.74,SSW,202,10.5,12.7,76,0.00,BKN,,0.29,WeatherDisplay:10.37,2013-05-23 17:05:00,
2013-05-23 13:10:00,69.6,62.4,29.74,SSW,202,8.7,12.7,78,0.00,BKN,,0.29,WeatherDisplay:10.37,2013-05-23 17:10:00,
2013-05-23 13:15:00,69.6,62.4,29.74,WSW,248,6.8,9.2,78,0.00,BKN,,0.29,WeatherDisplay:10.37,2013-05-23 17:15:00,
2013-05-23 13:20:00,69.3,62.1,29.74,SW,225,9.2,11.5,78,0.00,BKN,,0.29,WeatherDisplay:10.37,2013-05-23 17:20:00,
2013-05-23 13:25:00,68.9,61.8,29.74,WNW,292,7.2,8.1,78,0.00,BKN,,0.29,WeatherDisplay:10.37,2013-05-23 17:25:00,
2013-05-23 13:30:00,69.3,62.5,29.74,WSW,248,8.3,10.4,79,0.00,BKN,,0.29,WeatherDisplay:10.37,2013-05-23 17:30:00,
2013-05-23 13:35:00,69.1,62.3,29.74,WSW,248,7.5,10.4,79,0.00,BKN,,0.29,WeatherDisplay:10.37,2013-05-23 17:35:00,
2013-05-23 13:40:00,68.9,62.5,29.74,West,270,7.2,10.4,80,0.00,BKN,,0.29,WeatherDisplay:10.37,2013-05-23 17:40:00,
2013-05-23 13:45:00,68.2,61.8,29.74,West,270,9.1,12.7,80,0.00,BKN,,0.29,WeatherDisplay:10.37,2013-05-23 17:45:00,
2013-05-23 13:50:00,68.0,61.6,29.74,SW,225,10.8,13.8,80,0.00,BKN,,0.29,WeatherDisplay:10.37,2013-05-23 17:50:00,
2013-05-23 13:55:00,67.5,61.5,29.74,West,270,9.3,13.8,81,0.00,BKN,,0.29,WeatherDisplay:10.37,2013-05-23 17:55:00,
2013-05-23 14:00:00,67.5,61.5,29.74,NW,315,10.0,13.8,81,0.00,BKN,,0.29,WeatherDisplay:10.37,2013-05-23 18:00:00,
2013-05-23 14:05:00,68.7,62.3,29.74,SSE,158,8.9,10.4,80,0.00,BKN,,0.29,WeatherDisplay:10.37,2013-05-23 18:05:00,
2013-05-23 14:10:00,67.3,61.3,29.74,WSW,248,7.3,9.2,81,0.00,BKN,,0.29,WeatherDisplay:10.37,2013-05-23 18:10:00,
2013-05-23 14:15:00,67.1,61.4,29.74,West,270,6.1,9.9,82,0.00,BKN,,0.29,WeatherDisplay:10.37,2013-05-23 18:15:00,
2013-05-23 14:20:00,66.7,61.0,29.74,SW,225,6.9,10.4,82,0.00,BKN,,0.29,WeatherDisplay:10.37,2013-05-23 18:20:00,
2013-05-23 14:25:00,66.2,60.9,29.74,WSW,248,6.3,8.1,83,0.00,BKN,,0.29,WeatherDisplay:10.37,2013-05-23 18:25:00,
2013-05-23 14:30:00,66.6,61.3,29.74,WSW,248,6.7,9.2,83,0.00,BKN,,0.29,WeatherDisplay:10.37,2013-05-23 18:30:00,
2013-05-23 14:35:00,66.4,61.1,29.74,SW,225,6.8,8.1,83,0.00,BKN,,0.29,WeatherDisplay:10.37,2013-05-23 18:35:00,
2013-05-23 14:40:00,65.7,60.7,29.74,West,270,5.8,6.9,84,0.00,BKN,,0.29,WeatherDisplay:10.37,2013-05-23 18:40:00,
2013-05-23 14:45:00,65.8,60.8,29.74,West,270,10.9,10.9,84,0.00,BKN,,0.29,WeatherDisplay:10.37,2013-05-23 18:45:00,
2013-05-23 14:50:00,64.8,60.8,29.74,South,180,6.3,6.9,87,0.00,BKN,,0.29,WeatherDisplay:10.37,2013-05-23 18:50:00,
2013-05-23 14:55:00,65.1,61.1,29.74,West,270,9.5,11.5,87,0.00,BKN,,0.29,WeatherDisplay:10.37,2013-05-23 18:55:00,
2013-05-23 15:00:00,66.0,61.0,29.74,NNE,22,7.5,9.2,84,0.00,BKN,,0.29,WeatherDisplay:10.37,2013-05-23 19:00:00,
2013-05-23 15:05:00,67.6,61.6,29.74,WSW,248,8.6,9.2,81,0.00,BKN,,0.29,WeatherDisplay:10.37,2013-05-23 19:05:00,
2013-05-23 15:10:00,68.4,62.3,29.74,West,270,6.6,6.9,81,0.00,BKN,,0.29,WeatherDisplay:10.37,2013-05-23 19:10:00,
2013-05-23 15:15:00,68.2,61.8,29.74,SSW,202,9.2,10.4,80,0.00,BKN,,0.29,WeatherDisplay:10.37,2013-05-23 19:15:00,
2013-05-23 15:20:00,68.2,61.8,29.73,NNW,338,10.2,10.9,80,0.00,BKN,,0.29,WeatherDisplay:10.37,2013-05-23 19:20:00,
2013-05-23 15:25:00,68.4,62.0,29.73,WSW,248,10.4,12.7,80,0.00,BKN,,0.29,WeatherDisplay:10.37,2013-05-23 19:25:00,
2013-05-23 15:30:00,69.1,62.3,29.73,SSW,202,8.3,10.4,79,0.00,BKN,,0.29,WeatherDisplay:10.37,2013-05-23 19:30:00,
2013-05-23 15:35:00,69.4,62.6,29.73,SW,225,7.3,9.2,79,0.00,BKN,,0.29,WeatherDisplay:10.37,2013-05-23 19:35:00,
2013-05-23 15:40:00,68.9,62.1,29.72,WSW,248,9.6,11.5,79,0.00,BKN,,0.29,WeatherDisplay:10.37,2013-05-23 19:40:00,
2013-05-23 15:45:00,69.4,63.0,29.72,West,270,6.6,8.1,80,0.00,BKN,,0.29,WeatherDisplay:10.37,2013-05-23 19:45:00,
2013-05-23 15:50:00,69.3,62.1,29.72,SW,225,9.4,11.4,78,0.00,BKN,,0.29,WeatherDisplay:10.37,2013-05-23 19:50:00,
2013-05-23 15:55:00,69.1,62.3,29.73,West,270,8.7,11.5,79,0.00,BKN,,0.29,WeatherDisplay:10.37,2013-05-23 19:55:00,
2013-05-23 16:00:00,69.4,62.6,29.73,WSW,248,8.1,9.4,79,0.00,BKN,,0.29,WeatherDisplay:10.37,2013-05-23 20:00:00,
2013-05-23 16:05:00,69.3,62.9,29.73,SSW,202,8.3,12.7,80,0.00,BKN,,0.29,WeatherDisplay:10.37,2013-05-23 20:05:00,
2013-05-23 16:10:00,69.6,62.8,29.73,West,270,4.9,6.9,79,0.00,BKN,,0.29,WeatherDisplay:10.37,2013-05-23 20:10:00,
2013-05-23 16:15:00,69.1,62.3,29.73,NNW,338,8.0,9.2,79,0.00,BKN,,0.29,WeatherDisplay:10.37,2013-05-23 20:15:00,
2013-05-23 16:20:00,68.5,62.1,29.72,West,270,9.5,11.5,80,0.00,BKN,,0.29,WeatherDisplay:10.37,2013-05-23 20:20:00,
2013-05-23 16:25:00,67.6,61.2,29.72,West,270,8.2,11.5,80,0.00,BKN,,0.29,WeatherDisplay:10.37,2013-05-23 20:25:00,
2013-05-23 16:30:00,67.5,61.5,29.72,WNW,292,8.0,9.2,81,0.00,BKN,,0.29,WeatherDisplay:10.37,2013-05-23 20:30:00,
2013-05-23 16:35:00,67.1,61.1,29.72,West,270,7.9,9.2,81,0.00,BKN,,0.29,WeatherDisplay:10.37,2013-05-23 20:35:00,
2013-05-23 16:40:00,66.9,61.2,29.72,SW,225,8.3,10.4,82,0.00,BKN,,0.29,WeatherDisplay:10.37,2013-05-23 20:40:00,
2013-05-23 16:45:00,66.6,60.9,29.72,WSW,248,6.8,8.3,82,0.00,BKN,,0.29,WeatherDisplay:10.37,2013-05-23 20:45:00,
2013-05-23 16:50:00,66.6,61.3,29.72,South,180,7.6,9.2,83,0.00,BKN,,0.29,WeatherDisplay:10.37,2013-05-23 20:50:00,
2013-05-23 16:55:00,66.6,61.3,29.72,West,270,6.9,9.4,83,0.00,BKN,,0.29,WeatherDisplay:10.37,2013-05-23 20:55:00,
2013-05-23 17:00:00,66.6,61.3,29.72,WNW,292,7.2,9.2,83,0.00,BKN,,0.29,WeatherDisplay:10.37,2013-05-23 21:00:00,
2013-05-23 17:05:00,66.7,61.4,29.72,SSW,202,7.7,8.8,83,0.00,-RA,,0.29,WeatherDisplay:10.37,2013-05-23 21:05:00,
2013-05-23 17:10:00,66.6,60.9,29.72,SSW,202,5.1,6.9,82,0.00,-RA,,0.29,WeatherDisplay:10.37,2013-05-23 21:10:00,
2013-05-23 17:15:00,66.6,61.3,29.72,WNW,292,5.9,5.9,83,0.00,-RA,,0.29,WeatherDisplay:10.37,2013-05-23 21:15:00,
2013-05-23 17:20:00,66.2,61.6,29.73,WSW,248,7.2,9.9,85,0.00,-RA,,0.29,WeatherDisplay:10.37,2013-05-23 21:20:00,
2013-05-23 17:25:00,65.7,61.4,29.73,West,270,4.8,6.8,86,0.00,-RA,,0.29,WeatherDisplay:10.37,2013-05-23 21:25:00,
2013-05-23 17:30:00,65.5,61.5,29.73,SW,225,5.2,6.9,87,0.00,-RA,,0.29,WeatherDisplay:10.37,2013-05-23 21:30:00,
2013-05-23 17:35:00,65.3,61.3,29.73,WSW,248,2.5,3.5,87,0.00,-RA,,0.29,WeatherDisplay:10.37,2013-05-23 21:35:00,
2013-05-23 17:40:00,65.3,61.7,29.73,West,270,4.9,5.8,88,0.00,-RA,,0.29,WeatherDisplay:10.37,2013-05-23 21:40:00,
2013-05-23 17:45:00,64.9,61.6,29.73,West,270,6.5,9.4,89,0.00,-RA,,0.29,WeatherDisplay:10.37,2013-05-23 21:45:00,
2013-05-23 17:50:00,63.3,60.6,29.73,West,270,10.4,13.8,91,0.00,-RA,,0.29,WeatherDisplay:10.37,2013-05-23 21:50:00,
2013-05-23 17:55:00,62.2,60.2,29.73,West,270,5.5,6.8,93,0.00,-RA,,0.29,WeatherDisplay:10.37,2013-05-23 21:55:00,
2013-05-23 18:00:00,61.7,60.0,29.73,West,270,5.2,5.8,94,0.00,-RA,,0.29,WeatherDisplay:10.37,2013-05-23 22:00:00,
2013-05-23 18:05:00,61.2,58.6,29.74,WNW,292,4.1,4.6,91,0.00,-RA,,0.29,WeatherDisplay:10.37,2013-05-23 22:05:00,
2013-05-23 18:10:00,60.4,56.5,29.74,NE,45,4.1,5.8,87,0.00,-RA,,0.29,WeatherDisplay:10.37,2013-05-23 22:10:00,
2013-05-23 18:15:00,60.3,56.1,29.74,West,270,2.6,5.8,86,0.00,-RA,,0.29,WeatherDisplay:10.37,2013-05-23 22:15:00,
2013-05-23 18:20:00,60.4,56.2,29.75,NNW,338,5.9,6.9,86,0.00,-RA,,0.29,WeatherDisplay:10.37,2013-05-23 22:20:00,
2013-05-23 18:25:00,59.7,54.9,29.75,NW,315,5.8,8.1,84,0.00,-RA,,0.29,WeatherDisplay:10.37,2013-05-23 22:25:00,
2013-05-23 18:30:00,59.4,54.6,29.75,NNE,22,5.5,6.9,84,0.00,-RA,,0.29,WeatherDisplay:10.37,2013-05-23 22:30:00,
2013-05-23 18:35:00,58.8,53.6,29.75,NE,45,5.4,7.8,83,0.00,-RA,,0.29,WeatherDisplay:10.37,2013-05-23 22:35:00,
2013-05-23 18:40:00,58.1,52.6,29.75,WSW,248,7.6,8.1,82,0.00,-RA,,0.29,WeatherDisplay:10.37,2013-05-23 22:40:00,
2013-05-23 18:45:00,57.6,52.1,29.76,West,270,5.5,9.2,82,0.00,-RA,,0.29,WeatherDisplay:10.37,2013-05-23 22:45:00,
2013-05-23 18:50:00,57.0,51.6,29.76,NNW,338,8.0,11.5,82,0.00,-RA,,0.29,WeatherDisplay:10.37,2013-05-23 22:50:00,
2013-05-23 18:55:00,56.5,51.4,29.78,South,180,6.6,8.1,83,0.00,-RA,,0.29,WeatherDisplay:10.37,2013-05-23 22:55:00,
2013-05-23 19:00:00,55.6,51.5,29.78,NW,315,7.3,8.1,86,0.00,-RA,,0.29,WeatherDisplay:10.37,2013-05-23 23:00:00,
2013-05-23 19:05:00,54.3,52.0,29.78,West,270,4.8,5.8,92,0.01,-RA,,0.30,WeatherDisplay:10.37,2013-05-23 23:05:00,
2013-05-23 19:10:00,53.8,52.1,29.78,West,270,5.5,8.1,94,0.02,-RA,,0.31,WeatherDisplay:10.37,2013-05-23 23:10:00,
2013-05-23 19:15:00,53.4,51.7,29.78,WNW,292,3.8,4.6,94,0.02,-RA,,0.31,WeatherDisplay:10.37,2013-05-23 23:15:00,
2013-05-23 19:20:00,52.9,51.5,29.78,WNW,292,4.8,5.8,95,0.02,-RA,,0.31,WeatherDisplay:10.37,2013-05-23 23:20:00,
2013-05-23 19:25:00,52.7,51.3,29.78,SSE,158,3.1,5.8,95,0.02,-RA,,0.31,WeatherDisplay:10.37,2013-05-23 23:25:00,
2013-05-23 19:30:00,52.3,50.9,29.78,West,270,3.3,6.9,95,0.02,-RA,,0.31,WeatherDisplay:10.37,2013-05-23 23:30:00,
2013-05-23 19:35:00,52.0,50.6,29.78,NNW,338,5.3,6.9,95,0.02,-RA,,0.31,WeatherDisplay:10.37,2013-05-23 23:35:00,
2013-05-23 19:40:00,51.6,50.2,29.80,SSE,158,4.3,10.4,95,0.02,-RA,,0.31,WeatherDisplay:10.37,2013-05-23 23:40:00,
2013-05-23 19:45:00,51.4,50.0,29.80,North,360,6.4,8.1,95,0.02,-RA,,0.31,WeatherDisplay:10.37,2013-05-23 23:45:00,
2013-05-23 19:50:00,51.4,50.0,29.80,NNW,338,3.4,5.8,95,0.02,-RA,,0.31,WeatherDisplay:10.37,2013-05-23 23:50:00,
2013-05-23 19:55:00,51.3,49.9,29.80,South,180,2.4,3.5,95,0.02,-RA,,0.31,WeatherDisplay:10.37,2013-05-23 23:55:00,
2013-05-23 20:00:00,51.3,49.9,29.80,West,270,2.7,4.7,95,0.02,-RA,,0.31,WeatherDisplay:10.37,2013-05-24 00:00:00,
2013-05-23 20:05:00,51.1,49.7,29.81,WNW,292,3.6,4.6,95,0.01,-RA,,0.31,WeatherDisplay:10.37,2013-05-24 00:05:00,
2013-05-23 20:10:00,50.9,49.5,29.81,SW,225,5.7,6.9,95,0.00,-RA,,0.31,WeatherDisplay:10.37,2013-05-24 00:10:00,
2013-05-23 20:15:00,50.9,49.5,29.81,West,270,4.4,5.8,95,0.00,-RA,,0.31,WeatherDisplay:10.37,2013-05-24 00:15:00,
2013-05-23 20:20:00,50.7,49.3,29.81,NE,45,5.0,6.9,95,0.00,-RA,,0.31,WeatherDisplay:10.37,2013-05-24 00:20:00,
2013-05-23 20:25:00,50.7,49.3,29.81,East,90,3.1,3.5,95,0.00,-RA,,0.31,WeatherDisplay:10.37,2013-05-24 00:25:00,
2013-05-23 20:30:00,50.5,49.1,29.82,SW,225,5.4,8.1,95,0.00,-RA,,0.31,WeatherDisplay:10.37,2013-05-24 00:30:00,
2013-05-23 20:35:00,50.4,49.0,29.82,West,270,6.0,6.9,95,0.00,-RA,,0.31,WeatherDisplay:10.37,2013-05-24 00:35:00,
2013-05-23 20:40:00,50.4,49.0,29.82,SSE,158,5.3,5.8,95,0.00,-RA,,0.31,WeatherDisplay:10.37,2013-05-24 00:40:00,
2013-05-23 20:45:00,50.2,48.8,29.83,West,270,3.3,5.8,95,0.00,-RA,,0.31,WeatherDisplay:10.37,2013-05-24 00:45:00,
2013-05-23 20:50:00,50.2,48.8,29.83,NNE,22,2.9,3.5,95,0.00,-RA,,0.31,WeatherDisplay:10.37,2013-05-24 00:50:00,
2013-05-23 20:55:00,49.8,48.4,29.83,West,270,3.1,4.6,95,0.01,-RA,,0.32,WeatherDisplay:10.37,2013-05-24 00:55:00,
2013-05-23 21:00:00,49.6,48.2,29.83,NNW,338,6.9,10.4,95,0.01,-RA,,0.32,WeatherDisplay:10.37,2013-05-24 01:00:00,
2013-05-23 21:05:00,49.3,47.9,29.83,NNE,22,4.5,5.8,95,0.01,-RA,,0.32,WeatherDisplay:10.37,2013-05-24 01:05:00,
2013-05-23 21:10:00,49.3,47.9,29.83,SW,225,3.1,4.6,95,0.01,-RA,,0.32,WeatherDisplay:10.37,2013-05-24 01:10:00,
2013-05-23 21:15:00,49.3,47.9,29.83,ESE,112,2.0,3.7,95,0.01,-RA,,0.32,WeatherDisplay:10.37,2013-05-24 01:15:00,
2013-05-23 21:20:00,49.3,47.9,29.84,NNE,22,2.4,3.5,95,0.01,-RA,,0.32,WeatherDisplay:10.37,2013-05-24 01:20:00,
2013-05-23 21:25:00,48.9,47.5,29.84,West,270,5.6,6.3,95,0.02,-RA,,0.33,WeatherDisplay:10.37,2013-05-24 01:25:00,
2013-05-23 21:30:00,48.7,47.3,29.85,WNW,292,4.0,5.8,95,0.02,-RA,,0.33,WeatherDisplay:10.37,2013-05-24 01:30:00,
2013-05-23 21:35:00,48.6,47.2,29.85,West,270,3.2,5.8,95,0.02,-RA,,0.33,WeatherDisplay:10.37,2013-05-24 01:35:00,
2013-05-23 21:40:00,48.6,47.2,29.85,West,270,3.8,6.8,95,0.02,-RA,,0.33,WeatherDisplay:10.37,2013-05-24 01:40:00,
2013-05-23 21:45:00,48.4,47.0,29.85,WSW,248,5.0,5.3,95,0.02,-RA,,0.33,WeatherDisplay:10.37,2013-05-24 01:45:00,
2013-05-23 21:50:00,48.2,46.8,29.85,SW,225,3.9,6.9,95,0.02,-RA,,0.33,WeatherDisplay:10.37,2013-05-24 01:50:00,
2013-05-23 21:55:00,48.0,46.6,29.86,NW,315,5.8,9.2,95,0.01,-RA,,0.33,WeatherDisplay:10.37,2013-05-24 01:55:00,
2013-05-23 22:00:00,48.0,46.6,29.86,North,360,3.5,5.8,95,0.02,-RA,,0.34,WeatherDisplay:10.37,2013-05-24 02:00:00,
2013-05-23 22:05:00,47.8,46.4,29.86,NW,315,3.2,6.9,95,0.02,-RA,,0.34,WeatherDisplay:10.37,2013-05-24 02:05:00,
2013-05-23 22:10:00,47.7,46.3,29.86,West,270,4.0,5.8,95,0.02,-RA,,0.34,WeatherDisplay:10.37,2013-05-24 02:10:00,
2013-05-23 22:15:00,47.5,46.1,29.86,SW,225,4.9,5.8,95,0.02,SCT,,0.34,WeatherDisplay:10.37,2013-05-24 02:15:00,
2013-05-23 22:20:00,47.5,46.1,29.88,West,270,3.8,5.3,95,0.02,SCT,,0.34,WeatherDisplay:10.37,2013-05-24 02:20:00,
2013-05-23 22:25:00,47.3,45.9,29.88,WSW,248,2.7,4.6,95,0.01,SCT,,0.34,WeatherDisplay:10.37,2013-05-24 02:25:00,
2013-05-23 22:30:00,47.1,45.7,29.87,WNW,292,6.1,9.2,95,0.01,SCT,,0.35,WeatherDisplay:10.37,2013-05-24 02:30:00,
2013-05-23 22:35:00,47.1,45.7,29.87,NW,315,5.2,6.9,95,0.02,RA,,0.35,WeatherDisplay:10.37,2013-05-24 02:35:00,
2013-05-23 22:40:00,46.8,45.4,29.87,NW,315,4.5,6.9,95,0.02,RA,,0.35,WeatherDisplay:10.37,2013-05-24 02:40:00,
2013-05-23 22:45:00,46.6,45.2,29.87,NNE,22,4.4,5.8,95,0.02,OVC,,0.36,WeatherDisplay:10.37,2013-05-24 02:45:00,
2013-05-23 22:50:00,46.4,45.0,29.87,WNW,292,4.9,6.9,95,0.03,RA,,0.36,WeatherDisplay:10.37,2013-05-24 02:50:00,
2013-05-23 22:55:00,46.2,44.8,29.88,WNW,292,3.5,5.3,95,0.03,RA,,0.36,WeatherDisplay:10.37,2013-05-24 02:55:00,
2013-05-23 23:00:00,46.0,44.6,29.88,SW,225,5.1,6.9,95,0.03,RA,,0.37,WeatherDisplay:10.37,2013-05-24 03:00:00,
2013-05-23 23:05:00,45.9,44.5,29.88,NNE,22,5.3,5.8,95,0.03,-RA,,0.37,WeatherDisplay:10.37,2013-05-24 03:05:00,
2013-05-23 23:10:00,45.9,44.5,29.88,West,270,3.0,3.5,95,0.03,-RA,,0.38,WeatherDisplay:10.37,2013-05-24 03:10:00,
2013-05-23 23:15:00,45.5,44.2,29.88,NW,315,4.5,6.9,95,0.04,-RA,,0.38,WeatherDisplay:10.37,2013-05-24 03:15:00,
2013-05-23 23:20:00,45.1,43.8,29.89,West,270,6.1,8.3,95,0.04,-RA,,0.38,WeatherDisplay:10.37,2013-05-24 03:20:00,
2013-05-23 23:25:00,45.0,43.7,29.89,NNE,22,5.0,8.1,95,0.04,-RA,,0.38,WeatherDisplay:10.37,2013-05-24 03:25:00,
2013-05-23 23:30:00,44.8,43.5,29.89,West,270,5.4,10.9,95,0.04,-RA,,0.38,WeatherDisplay:10.37,2013-05-24 03:30:00,
2013-05-23 23:35:00,44.6,43.3,29.89,West,270,5.6,11.9,95,0.04,-RA,,0.39,WeatherDisplay:10.37,2013-05-24 03:35:00,
2013-05-23 23:40:00,44.4,43.1,29.90,WNW,292,6.8,8.1,95,0.04,-RA,,0.39,WeatherDisplay:10.37,2013-05-24 03:40:00,
2013-05-23 23:45:00,44.2,42.9,29.90,NW,315,5.9,10.4,95,0.04,-RA,,0.39,WeatherDisplay:10.37,2013-05-24 03:45:00,
2013-05-23 23:50:00,44.1,42.8,29.90,ESE,112,4.6,9.2,95,0.03,-RA,,0.39,WeatherDisplay:10.37,2013-05-24 03:50:00,
2013-05-23 23:55:00,44.1,42.8,29.91,NNE,22,4.9,6.9,95,0.03,-RA,,0.39,WeatherDisplay:10.37,2013-05-24 03:55:00,